TAF AMD ZGNN 122003Z 1218/1318 03003MPS 6000 FEW003 SCT005 BKN013 TX22/1307Z TN19/1222Z
TEMPO 1300/1306 SHRA SCT007 FEW026CB BKN030
BECMG 1303/1304 FEW013 BKN033
From batch tds/tafs/production/2023/5/12/h20_m24_tafs.cache.xml
Issued (10 months ago)
Forecasts
1218/1303 3006KT FEW300 SCT500 BKN1300

---
fcst_time_to: '2023-05-13T03:00:00Z'
sky_condition:
- - sky_cover: FEW
    cloud_base_ft_agl: '300'
- - sky_cover: SCT
    cloud_base_ft_agl: '500'
- - sky_cover: BKN
    cloud_base_ft_agl: '1300'
wind_speed_kt: '6'
fcst_time_from: '2023-05-12T18:00:00Z'
wind_dir_degrees: '30'
visibility_statute_mi: '3.73'

TEMPO 1300/1306 SCT700 FEWCB2600 BKN3000

---
wx_string: SHRA
not_decoded: TX22/1307Z TN19/1222Z
fcst_time_to: '2023-05-13T06:00:00Z'
sky_condition:
- - sky_cover: SCT
    cloud_base_ft_agl: '700'
- - sky_cover: FEW
    cloud_type: CB
    cloud_base_ft_agl: '2600'
- - sky_cover: BKN
    cloud_base_ft_agl: '3000'
fcst_time_from: '2023-05-13T00:00:00Z'
change_indicator: TEMPO

BECMG 1304/1318 3006KT FEW1300 BKN3300

---
fcst_time_to: '2023-05-13T18:00:00Z'
sky_condition:
- - sky_cover: FEW
    cloud_base_ft_agl: '1300'
- - sky_cover: BKN
    cloud_base_ft_agl: '3300'
time_becoming: '2023-05-13T04:00:00Z'
wind_speed_kt: '6'
fcst_time_from: '2023-05-13T03:00:00Z'
change_indicator: BECMG
wind_dir_degrees: '30'
visibility_statute_mi: '3.73'

talk